sensor_id;sensor_type;location;lat;lon;timestamp;P1;durP1;ratioP1;P2;durP2;ratioP2
32812;SDS011;19162;48.254;11.454;2023-05-17T00:01:38;3.93;;;1.90;;
32812;SDS011;19162;48.254;11.454;2023-05-17T00:04:39;4.57;;;1.67;;
32812;SDS011;19162;48.254;11.454;2023-05-17T00:07:39;5.93;;;1.73;;
32812;SDS011;19162;48.254;11.454;2023-05-17T00:10:39;5.97;;;1.87;;
32812;SDS011;19162;48.254;11.454;2023-05-17T00:13:39;3.13;;;1.53;;
32812;SDS011;19162;48.254;11.454;2023-05-17T00:16:41;5.53;;;2.10;;
32812;SDS011;19162;48.254;11.454;2023-05-17T00:19:41;4.83;;;2.20;;
32812;SDS011;19162;48.254;11.454;2023-05-17T00:22:41;5.97;;;2.45;;
32812;SDS011;19162;48.254;11.454;2023-05-17T00:25:42;5.68;;;1.80;;
32812;SDS011;19162;48.254;11.454;2023-05-17T00:28:42;3.78;;;1.65;;
32812;SDS011;19162;48.254;11.454;2023-05-17T00:31:42;4.60;;;1.77;;
32812;SDS011;19162;48.254;11.454;2023-05-17T00:34:42;3.92;;;1.90;;
32812;SDS011;19162;48.254;11.454;2023-05-17T00:37:43;7.40;;;1.90;;
32812;SDS011;19162;48.254;11.454;2023-05-17T00:40:46;4.95;;;1.85;;
32812;SDS011;19162;48.254;11.454;2023-05-17T00:43:48;3.92;;;2.05;;
32812;SDS011;19162;48.254;11.454;2023-05-17T00:46:48;3.63;;;1.90;;
32812;SDS011;19162;48.254;11.454;2023-05-17T00:49:49;5.15;;;2.08;;
32812;SDS011;19162;48.254;11.454;2023-05-17T00:52:50;4.32;;;2.10;;
32812;SDS011;19162;48.254;11.454;2023-05-17T00:55:50;4.23;;;1.87;;
32812;SDS011;19162;48.254;11.454;2023-05-17T00:58:51;6.32;;;2.05;;
32812;SDS011;19162;48.254;11.454;2023-05-17T01:01:52;7.13;;;2.05;;
32812;SDS011;19162;48.254;11.454;2023-05-17T01:04:52;5.13;;;2.65;;
32812;SDS011;19162;48.254;11.454;2023-05-17T01:07:53;6.20;;;2.07;;
32812;SDS011;19162;48.254;11.454;2023-05-17T01:10:57;4.78;;;2.08;;
32812;SDS011;19162;48.254;11.454;2023-05-17T01:17:00;4.30;;;2.20;;
32812;SDS011;19162;48.254;11.454;2023-05-17T01:23:09;5.65;;;2.50;;
32812;SDS011;19162;48.254;11.454;2023-05-17T01:26:14;5.50;;;2.08;;
32812;SDS011;19162;48.254;11.454;2023-05-17T01:29:15;4.50;;;2.42;;
32812;SDS011;19162;48.254;11.454;2023-05-17T01:32:15;6.00;;;2.97;;
32812;SDS011;19162;48.254;11.454;2023-05-17T01:35:16;6.47;;;2.78;;
32812;SDS011;19162;48.254;11.454;2023-05-17T01:38:17;7.23;;;2.27;;
32812;SDS011;19162;48.254;11.454;2023-05-17T01:41:28;5.57;;;2.43;;
32812;SDS011;19162;48.254;11.454;2023-05-17T01:48:09;5.60;;;2.65;;
32812;SDS011;19162;48.254;11.454;2023-05-17T01:51:16;6.50;;;2.60;;
32812;SDS011;19162;48.254;11.454;2023-05-17T01:54:19;6.55;;;2.38;;
32812;SDS011;19162;48.254;11.454;2023-05-17T01:57:23;4.18;;;2.42;;
32812;SDS011;19162;48.254;11.454;2023-05-17T02:00:26;5.35;;;2.95;;
32812;SDS011;19162;48.254;11.454;2023-05-17T02:03:28;4.82;;;2.13;;
32812;SDS011;19162;48.254;11.454;2023-05-17T02:06:28;6.53;;;2.13;;
32812;SDS011;19162;48.254;11.454;2023-05-17T02:09:28;3.97;;;2.40;;
32812;SDS011;19162;48.254;11.454;2023-05-17T02:12:28;6.00;;;2.77;;
32812;SDS011;19162;48.254;11.454;2023-05-17T02:15:29;8.77;;;2.85;;
32812;SDS011;19162;48.254;11.454;2023-05-17T02:18:29;4.05;;;1.90;;
32812;SDS011;19162;48.254;11.454;2023-05-17T02:21:29;6.82;;;2.58;;
32812;SDS011;19162;48.254;11.454;2023-05-17T02:24:29;5.18;;;2.40;;
32812;SDS011;19162;48.254;11.454;2023-05-17T02:27:30;6.10;;;2.53;;
32812;SDS011;19162;48.254;11.454;2023-05-17T02:30:30;3.70;;;2.17;;
32812;SDS011;19162;48.254;11.454;2023-05-17T02:33:30;3.83;;;2.23;;
32812;SDS011;19162;48.254;11.454;2023-05-17T02:36:30;5.77;;;2.30;;
32812;SDS011;19162;48.254;11.454;2023-05-17T02:39:32;3.45;;;2.13;;
32812;SDS011;19162;48.254;11.454;2023-05-17T02:42:32;9.18;;;2.90;;
32812;SDS011;19162;48.254;11.454;2023-05-17T02:45:32;3.60;;;1.80;;
32812;SDS011;19162;48.254;11.454;2023-05-17T02:48:33;5.80;;;2.63;;
32812;SDS011;19162;48.254;11.454;2023-05-17T02:51:33;6.82;;;2.55;;
32812;SDS011;19162;48.254;11.454;2023-05-17T02:54:33;4.03;;;2.20;;
32812;SDS011;19162;48.254;11.454;2023-05-17T02:57:33;3.40;;;1.95;;
32812;SDS011;19162;48.254;11.454;2023-05-17T03:00:33;6.05;;;2.00;;
32812;SDS011;19162;48.254;11.454;2023-05-17T03:03:34;3.40;;;2.60;;
32812;SDS011;19162;48.254;11.454;2023-05-17T03:06:34;6.45;;;2.42;;
32812;SDS011;19162;48.254;11.454;2023-05-17T03:09:36;6.70;;;2.05;;
32812;SDS011;19162;48.254;11.454;2023-05-17T03:12:36;6.07;;;1.93;;
32812;SDS011;19162;48.254;11.454;2023-05-17T03:15:36;2.42;;;1.77;;
32812;SDS011;19162;48.254;11.454;2023-05-17T03:18:37;2.93;;;1.87;;
32812;SDS011;19162;48.254;11.454;2023-05-17T03:21:37;6.18;;;2.08;;
32812;SDS011;19162;48.254;11.454;2023-05-17T03:24:37;4.03;;;1.90;;
32812;SDS011;19162;48.254;11.454;2023-05-17T03:27:37;4.47;;;2.25;;
32812;SDS011;19162;48.254;11.454;2023-05-17T03:30:37;4.93;;;2.00;;
32812;SDS011;19162;48.254;11.454;2023-05-17T03:33:37;4.70;;;2.40;;
32812;SDS011;19162;48.254;11.454;2023-05-17T03:36:38;3.37;;;1.33;;
32812;SDS011;19162;48.254;11.454;2023-05-17T03:39:39;4.13;;;1.50;;
32812;SDS011;19162;48.254;11.454;2023-05-17T03:42:39;6.70;;;2.43;;
32812;SDS011;19162;48.254;11.454;2023-05-17T03:45:40;4.90;;;1.90;;
32812;SDS011;19162;48.254;11.454;2023-05-17T03:48:40;8.43;;;2.13;;
32812;SDS011;19162;48.254;11.454;2023-05-17T03:51:40;3.27;;;1.57;;
32812;SDS011;19162;48.254;11.454;2023-05-17T03:54:41;3.17;;;1.77;;
32812;SDS011;19162;48.254;11.454;2023-05-17T03:57:41;3.80;;;1.88;;
32812;SDS011;19162;48.254;11.454;2023-05-17T04:00:41;3.45;;;2.08;;
32812;SDS011;19162;48.254;11.454;2023-05-17T04:03:41;3.73;;;1.60;;
32812;SDS011;19162;48.254;11.454;2023-05-17T04:06:41;6.10;;;2.03;;
32812;SDS011;19162;48.254;11.454;2023-05-17T04:09:42;4.63;;;2.17;;
32812;SDS011;19162;48.254;11.454;2023-05-17T04:12:42;3.77;;;1.97;;
32812;SDS011;19162;48.254;11.454;2023-05-17T04:15:42;3.20;;;1.85;;
32812;SDS011;19162;48.254;11.454;2023-05-17T04:18:43;3.20;;;2.13;;
32812;SDS011;19162;48.254;11.454;2023-05-17T04:21:44;3.17;;;1.80;;
32812;SDS011;19162;48.254;11.454;2023-05-17T04:24:44;9.10;;;1.88;;
32812;SDS011;19162;48.254;11.454;2023-05-17T04:27:45;7.17;;;2.20;;
32812;SDS011;19162;48.254;11.454;2023-05-17T04:30:45;5.75;;;1.80;;
32812;SDS011;19162;48.254;11.454;2023-05-17T04:33:46;5.43;;;2.20;;
32812;SDS011;19162;48.254;11.454;2023-05-17T04:36:46;4.10;;;2.10;;
32812;SDS011;19162;48.254;11.454;2023-05-17T04:39:47;3.72;;;2.00;;
32812;SDS011;19162;48.254;11.454;2023-05-17T04:42:47;2.07;;;1.60;;
32812;SDS011;19162;48.254;11.454;2023-05-17T04:45:47;3.30;;;1.70;;
32812;SDS011;19162;48.254;11.454;2023-05-17T04:48:49;4.00;;;1.70;;
32812;SDS011;19162;48.254;11.454;2023-05-17T04:51:49;3.22;;;2.00;;
32812;SDS011;19162;48.254;11.454;2023-05-17T04:54:49;2.95;;;2.00;;
32812;SDS011;19162;48.254;11.454;2023-05-17T04:57:50;5.65;;;2.38;;
32812;SDS011;19162;48.254;11.454;2023-05-17T05:00:51;3.30;;;1.58;;
32812;SDS011;19162;48.254;11.454;2023-05-17T05:03:51;2.90;;;2.03;;
32812;SDS011;19162;48.254;11.454;2023-05-17T05:06:51;4.63;;;2.15;;
32812;SDS011;19162;48.254;11.454;2023-05-17T05:09:51;4.18;;;1.77;;
32812;SDS011;19162;48.254;11.454;2023-05-17T05:12:52;3.73;;;1.70;;
32812;SDS011;19162;48.254;11.454;2023-05-17T05:15:52;4.03;;;2.22;;
32812;SDS011;19162;48.254;11.454;2023-05-17T05:18:52;5.55;;;1.80;;
32812;SDS011;19162;48.254;11.454;2023-05-17T05:21:52;5.47;;;1.67;;
32812;SDS011;19162;48.254;11.454;2023-05-17T05:24:52;4.00;;;1.80;;
32812;SDS011;19162;48.254;11.454;2023-05-17T05:27:53;2.73;;;1.70;;
32812;SDS011;19162;48.254;11.454;2023-05-17T05:30:56;3.07;;;1.77;;
32812;SDS011;19162;48.254;11.454;2023-05-17T05:33:57;2.35;;;1.45;;
32812;SDS011;19162;48.254;11.454;2023-05-17T05:36:57;6.43;;;2.20;;
32812;SDS011;19162;48.254;11.454;2023-05-17T05:39:57;4.75;;;1.83;;
32812;SDS011;19162;48.254;11.454;2023-05-17T05:42:58;8.05;;;2.22;;
32812;SDS011;19162;48.254;11.454;2023-05-17T05:45:58;3.75;;;1.27;;
32812;SDS011;19162;48.254;11.454;2023-05-17T05:48:58;4.00;;;1.58;;
32812;SDS011;19162;48.254;11.454;2023-05-17T05:51:59;4.65;;;1.90;;
32812;SDS011;19162;48.254;11.454;2023-05-17T05:54:59;3.20;;;1.37;;
32812;SDS011;19162;48.254;11.454;2023-05-17T05:57:59;3.80;;;1.75;;
32812;SDS011;19162;48.254;11.454;2023-05-17T06:00:59;2.88;;;1.42;;
32812;SDS011;19162;48.254;11.454;2023-05-17T06:04:00;4.10;;;2.20;;
32812;SDS011;19162;48.254;11.454;2023-05-17T06:07:00;5.47;;;1.67;;
32812;SDS011;19162;48.254;11.454;2023-05-17T06:10:00;4.43;;;1.63;;
32812;SDS011;19162;48.254;11.454;2023-05-17T06:13:00;3.67;;;1.77;;
32812;SDS011;19162;48.254;11.454;2023-05-17T06:16:01;3.57;;;1.50;;
32812;SDS011;19162;48.254;11.454;2023-05-17T06:19:01;3.50;;;1.83;;
32812;SDS011;19162;48.254;11.454;2023-05-17T06:22:01;4.55;;;1.90;;
32812;SDS011;19162;48.254;11.454;2023-05-17T06:25:02;2.77;;;1.40;;
32812;SDS011;19162;48.254;11.454;2023-05-17T06:28:02;4.70;;;1.70;;
32812;SDS011;19162;48.254;11.454;2023-05-17T06:31:03;5.35;;;2.05;;
32812;SDS011;19162;48.254;11.454;2023-05-17T06:34:03;6.83;;;1.77;;
32812;SDS011;19162;48.254;11.454;2023-05-17T06:37:03;3.87;;;1.73;;
32812;SDS011;19162;48.254;11.454;2023-05-17T06:40:04;5.53;;;2.05;;
32812;SDS011;19162;48.254;11.454;2023-05-17T06:43:05;3.30;;;1.87;;
32812;SDS011;19162;48.254;11.454;2023-05-17T06:46:06;2.13;;;1.52;;
32812;SDS011;19162;48.254;11.454;2023-05-17T06:49:06;3.90;;;1.87;;
32812;SDS011;19162;48.254;11.454;2023-05-17T06:52:06;4.57;;;1.73;;
32812;SDS011;19162;48.254;11.454;2023-05-17T06:55:06;4.20;;;1.90;;
32812;SDS011;19162;48.254;11.454;2023-05-17T06:58:08;3.58;;;1.67;;
32812;SDS011;19162;48.254;11.454;2023-05-17T07:01:08;4.77;;;1.70;;
32812;SDS011;19162;48.254;11.454;2023-05-17T07:04:08;6.35;;;1.80;;
32812;SDS011;19162;48.254;11.454;2023-05-17T07:07:08;7.50;;;1.98;;
32812;SDS011;19162;48.254;11.454;2023-05-17T07:10:08;3.13;;;1.83;;
32812;SDS011;19162;48.254;11.454;2023-05-17T07:13:09;6.72;;;2.00;;
32812;SDS011;19162;48.254;11.454;2023-05-17T07:16:09;4.57;;;2.13;;
32812;SDS011;19162;48.254;11.454;2023-05-17T07:19:10;5.43;;;1.80;;
32812;SDS011;19162;48.254;11.454;2023-05-17T07:22:10;3.00;;;1.52;;
32812;SDS011;19162;48.254;11.454;2023-05-17T07:25:11;4.40;;;1.45;;
32812;SDS011;19162;48.254;11.454;2023-05-17T07:28:11;3.60;;;2.03;;
32812;SDS011;19162;48.254;11.454;2023-05-17T07:31:11;3.70;;;1.87;;
32812;SDS011;19162;48.254;11.454;2023-05-17T07:34:12;2.70;;;1.40;;
32812;SDS011;19162;48.254;11.454;2023-05-17T07:37:12;4.05;;;1.42;;
32812;SDS011;19162;48.254;11.454;2023-05-17T07:40:12;3.27;;;1.57;;
32812;SDS011;19162;48.254;11.454;2023-05-17T07:43:12;3.60;;;1.70;;
32812;SDS011;19162;48.254;11.454;2023-05-17T07:46:13;5.18;;;1.67;;
32812;SDS011;19162;48.254;11.454;2023-05-17T07:49:13;4.77;;;1.47;;
32812;SDS011;19162;48.254;11.454;2023-05-17T07:52:13;2.35;;;1.45;;
32812;SDS011;19162;48.254;11.454;2023-05-17T07:55:14;3.38;;;1.48;;
32812;SDS011;19162;48.254;11.454;2023-05-17T07:58:14;5.20;;;1.98;;
32812;SDS011;19162;48.254;11.454;2023-05-17T08:01:14;4.60;;;1.67;;
32812;SDS011;19162;48.254;11.454;2023-05-17T08:04:14;7.53;;;1.67;;
32812;SDS011;19162;48.254;11.454;2023-05-17T08:07:15;4.70;;;1.90;;
32812;SDS011;19162;48.254;11.454;2023-05-17T08:10:15;3.50;;;1.50;;
32812;SDS011;19162;48.254;11.454;2023-05-17T08:13:15;5.10;;;2.17;;
32812;SDS011;19162;48.254;11.454;2023-05-17T08:16:15;3.27;;;1.50;;
32812;SDS011;19162;48.254;11.454;2023-05-17T08:19:16;6.05;;;2.05;;
32812;SDS011;19162;48.254;11.454;2023-05-17T08:22:16;2.60;;;1.58;;
32812;SDS011;19162;48.254;11.454;2023-05-17T08:25:18;3.60;;;1.67;;
32812;SDS011;19162;48.254;11.454;2023-05-17T08:28:18;4.95;;;2.28;;
32812;SDS011;19162;48.254;11.454;2023-05-17T08:31:19;4.28;;;1.67;;
32812;SDS011;19162;48.254;11.454;2023-05-17T08:34:19;3.30;;;2.08;;
32812;SDS011;19162;48.254;11.454;2023-05-17T08:37:19;3.92;;;1.60;;
32812;SDS011;19162;48.254;11.454;2023-05-17T08:40:20;3.83;;;2.10;;
32812;SDS011;19162;48.254;11.454;2023-05-17T08:43:20;2.90;;;1.20;;
32812;SDS011;19162;48.254;11.454;2023-05-17T08:46:21;5.15;;;1.80;;
32812;SDS011;19162;48.254;11.454;2023-05-17T08:49:22;4.82;;;1.65;;
32812;SDS011;19162;48.254;11.454;2023-05-17T08:52:27;4.18;;;1.50;;
32812;SDS011;19162;48.254;11.454;2023-05-17T08:55:28;4.07;;;1.90;;
32812;SDS011;19162;48.254;11.454;2023-05-17T08:58:30;4.28;;;1.65;;
32812;SDS011;19162;48.254;11.454;2023-05-17T09:01:32;4.27;;;1.67;;
32812;SDS011;19162;48.254;11.454;2023-05-17T09:04:32;3.65;;;1.55;;
32812;SDS011;19162;48.254;11.454;2023-05-17T09:07:33;2.70;;;1.60;;
32812;SDS011;19162;48.254;11.454;2023-05-17T09:10:33;2.72;;;1.60;;
32812;SDS011;19162;48.254;11.454;2023-05-17T09:13:33;2.60;;;1.60;;
32812;SDS011;19162;48.254;11.454;2023-05-17T09:16:34;3.50;;;1.27;;
32812;SDS011;19162;48.254;11.454;2023-05-17T09:19:35;3.90;;;1.70;;
32812;SDS011;19162;48.254;11.454;2023-05-17T09:22:41;3.95;;;1.83;;
32812;SDS011;19162;48.254;11.454;2023-05-17T09:25:46;3.88;;;1.60;;
32812;SDS011;19162;48.254;11.454;2023-05-17T09:28:47;5.72;;;1.27;;
32812;SDS011;19162;48.254;11.454;2023-05-17T09:31:47;3.22;;;1.42;;
32812;SDS011;19162;48.254;11.454;2023-05-17T09:34:47;5.40;;;1.40;;
32812;SDS011;19162;48.254;11.454;2023-05-17T09:37:48;2.23;;;1.63;;
32812;SDS011;19162;48.254;11.454;2023-05-17T09:40:48;4.67;;;1.37;;
32812;SDS011;19162;48.254;11.454;2023-05-17T09:43:48;4.87;;;2.30;;
32812;SDS011;19162;48.254;11.454;2023-05-17T09:46:48;3.53;;;1.60;;
32812;SDS011;19162;48.254;11.454;2023-05-17T09:49:48;3.30;;;1.80;;
32812;SDS011;19162;48.254;11.454;2023-05-17T09:52:49;3.40;;;1.53;;
32812;SDS011;19162;48.254;11.454;2023-05-17T09:55:50;4.22;;;1.40;;
32812;SDS011;19162;48.254;11.454;2023-05-17T09:58:51;5.18;;;1.75;;
32812;SDS011;19162;48.254;11.454;2023-05-17T10:01:51;2.80;;;1.83;;
32812;SDS011;19162;48.254;11.454;2023-05-17T10:04:54;3.78;;;1.65;;
32812;SDS011;19162;48.254;11.454;2023-05-17T10:07:55;5.35;;;1.77;;
32812;SDS011;19162;48.254;11.454;2023-05-17T10:10:57;4.82;;;1.83;;
32812;SDS011;19162;48.254;11.454;2023-05-17T10:14:08;3.55;;;1.92;;
32812;SDS011;19162;48.254;11.454;2023-05-17T10:17:09;4.75;;;1.88;;
32812;SDS011;19162;48.254;11.454;2023-05-17T10:20:10;4.25;;;2.13;;
32812;SDS011;19162;48.254;11.454;2023-05-17T10:23:11;6.35;;;2.30;;
32812;SDS011;19162;48.254;11.454;2023-05-17T10:26:13;3.03;;;1.67;;
32812;SDS011;19162;48.254;11.454;2023-05-17T10:29:16;2.65;;;1.45;;
32812;SDS011;19162;48.254;11.454;2023-05-17T10:32:17;3.88;;;1.85;;
32812;SDS011;19162;48.254;11.454;2023-05-17T10:35:18;3.10;;;1.98;;
32812;SDS011;19162;48.254;11.454;2023-05-17T10:38:18;5.53;;;2.10;;
32812;SDS011;19162;48.254;11.454;2023-05-17T10:41:19;4.03;;;1.90;;
32812;SDS011;19162;48.254;11.454;2023-05-17T10:44:20;5.60;;;2.10;;
32812;SDS011;19162;48.254;11.454;2023-05-17T10:47:21;3.88;;;1.92;;
32812;SDS011;19162;48.254;11.454;2023-05-17T10:50:30;5.97;;;1.88;;
32812;SDS011;19162;48.254;11.454;2023-05-17T10:53:31;4.05;;;1.83;;
32812;SDS011;19162;48.254;11.454;2023-05-17T10:56:31;3.57;;;1.73;;
32812;SDS011;19162;48.254;11.454;2023-05-17T10:59:32;2.83;;;1.90;;
32812;SDS011;19162;48.254;11.454;2023-05-17T11:02:33;5.15;;;1.90;;
32812;SDS011;19162;48.254;11.454;2023-05-17T11:05:33;2.92;;;1.80;;
32812;SDS011;19162;48.254;11.454;2023-05-17T11:08:34;5.73;;;2.20;;
32812;SDS011;19162;48.254;11.454;2023-05-17T11:11:34;2.47;;;2.05;;
32812;SDS011;19162;48.254;11.454;2023-05-17T11:20:50;3.80;;;2.20;;
32812;SDS011;19162;48.254;11.454;2023-05-17T11:24:06;3.33;;;2.45;;
32812;SDS011;19162;48.254;11.454;2023-05-17T11:27:07;4.05;;;3.28;;
32812;SDS011;19162;48.254;11.454;2023-05-17T11:30:08;2.37;;;2.10;;
32812;SDS011;19162;48.254;11.454;2023-05-17T11:33:09;3.47;;;2.15;;
32812;SDS011;19162;48.254;11.454;2023-05-17T11:36:14;3.83;;;2.25;;
32812;SDS011;19162;48.254;11.454;2023-05-17T11:39:16;4.28;;;2.42;;
32812;SDS011;19162;48.254;11.454;2023-05-17T11:42:22;6.47;;;2.65;;
32812;SDS011;19162;48.254;11.454;2023-05-17T11:45:23;4.20;;;1.90;;
32812;SDS011;19162;48.254;11.454;2023-05-17T11:48:24;3.47;;;2.80;;
32812;SDS011;19162;48.254;11.454;2023-05-17T11:51:25;3.50;;;2.65;;
32812;SDS011;19162;48.254;11.454;2023-05-17T11:54:25;3.93;;;2.90;;
32812;SDS011;19162;48.254;11.454;2023-05-17T11:57:28;3.60;;;3.13;;
32812;SDS011;19162;48.254;11.454;2023-05-17T12:00:29;4.18;;;2.63;;
32812;SDS011;19162;48.254;11.454;2023-05-17T12:03:30;3.23;;;2.80;;
32812;SDS011;19162;48.254;11.454;2023-05-17T12:06:30;6.90;;;3.50;;
32812;SDS011;19162;48.254;11.454;2023-05-17T12:09:31;4.85;;;3.00;;
32812;SDS011;19162;48.254;11.454;2023-05-17T12:12:31;3.40;;;2.90;;
32812;SDS011;19162;48.254;11.454;2023-05-17T12:15:32;3.80;;;2.80;;
32812;SDS011;19162;48.254;11.454;2023-05-17T12:18:39;4.00;;;2.25;;
32812;SDS011;19162;48.254;11.454;2023-05-17T12:21:40;5.70;;;3.42;;
32812;SDS011;19162;48.254;11.454;2023-05-17T12:24:41;2.93;;;2.47;;
32812;SDS011;19162;48.254;11.454;2023-05-17T12:27:41;4.80;;;2.80;;
32812;SDS011;19162;48.254;11.454;2023-05-17T12:30:42;3.75;;;3.20;;
32812;SDS011;19162;48.254;11.454;2023-05-17T12:33:43;4.07;;;2.60;;
32812;SDS011;19162;48.254;11.454;2023-05-17T12:36:43;2.80;;;2.50;;
32812;SDS011;19162;48.254;11.454;2023-05-17T12:39:43;3.25;;;2.95;;
32812;SDS011;19162;48.254;11.454;2023-05-17T12:42:44;3.40;;;3.10;;
32812;SDS011;19162;48.254;11.454;2023-05-17T12:45:46;4.25;;;2.53;;
32812;SDS011;19162;48.254;11.454;2023-05-17T12:48:49;4.38;;;2.55;;
32812;SDS011;19162;48.254;11.454;2023-05-17T12:51:49;5.32;;;2.92;;
32812;SDS011;19162;48.254;11.454;2023-05-17T12:54:49;3.20;;;2.30;;
32812;SDS011;19162;48.254;11.454;2023-05-17T12:57:50;3.47;;;3.07;;
32812;SDS011;19162;48.254;11.454;2023-05-17T13:00:57;4.15;;;2.92;;
32812;SDS011;19162;48.254;11.454;2023-05-17T13:03:57;3.88;;;2.50;;
32812;SDS011;19162;48.254;11.454;2023-05-17T13:07:02;4.43;;;2.70;;
32812;SDS011;19162;48.254;11.454;2023-05-17T13:10:02;5.07;;;2.58;;
32812;SDS011;19162;48.254;11.454;2023-05-17T13:13:02;5.23;;;2.97;;
32812;SDS011;19162;48.254;11.454;2023-05-17T13:16:04;4.00;;;2.90;;
32812;SDS011;19162;48.254;11.454;2023-05-17T13:19:11;4.80;;;2.95;;
32812;SDS011;19162;48.254;11.454;2023-05-17T13:22:11;4.22;;;3.00;;
32812;SDS011;19162;48.254;11.454;2023-05-17T13:25:12;4.97;;;3.05;;
32812;SDS011;19162;48.254;11.454;2023-05-17T13:28:12;3.57;;;2.63;;
32812;SDS011;19162;48.254;11.454;2023-05-17T13:31:12;3.90;;;2.72;;
32812;SDS011;19162;48.254;11.454;2023-05-17T13:34:12;3.90;;;2.80;;
32812;SDS011;19162;48.254;11.454;2023-05-17T13:37:13;6.27;;;3.20;;
32812;SDS011;19162;48.254;11.454;2023-05-17T13:40:13;4.65;;;3.50;;
32812;SDS011;19162;48.254;11.454;2023-05-17T13:43:13;5.35;;;3.03;;
32812;SDS011;19162;48.254;11.454;2023-05-17T13:46:14;4.30;;;2.87;;
32812;SDS011;19162;48.254;11.454;2023-05-17T13:49:14;3.92;;;3.25;;
32812;SDS011;19162;48.254;11.454;2023-05-17T13:52:15;3.75;;;2.75;;
32812;SDS011;19162;48.254;11.454;2023-05-17T13:55:17;3.70;;;3.27;;
32812;SDS011;19162;48.254;11.454;2023-05-17T13:58:17;4.43;;;3.07;;
32812;SDS011;19162;48.254;11.454;2023-05-17T14:01:17;3.77;;;2.87;;
32812;SDS011;19162;48.254;11.454;2023-05-17T14:04:18;5.17;;;2.87;;
32812;SDS011;19162;48.254;11.454;2023-05-17T14:07:20;5.07;;;2.47;;
32812;SDS011;19162;48.254;11.454;2023-05-17T14:10:20;4.47;;;2.73;;
32812;SDS011;19162;48.254;11.454;2023-05-17T14:13:20;3.60;;;3.10;;
32812;SDS011;19162;48.254;11.454;2023-05-17T14:16:20;2.85;;;2.53;;
32812;SDS011;19162;48.254;11.454;2023-05-17T14:19:21;7.57;;;3.45;;
32812;SDS011;19162;48.254;11.454;2023-05-17T14:22:22;4.00;;;2.78;;
32812;SDS011;19162;48.254;11.454;2023-05-17T14:25:22;3.55;;;2.92;;
32812;SDS011;19162;48.254;11.454;2023-05-17T14:28:22;4.57;;;3.20;;
32812;SDS011;19162;48.254;11.454;2023-05-17T14:31:23;3.20;;;2.90;;
32812;SDS011;19162;48.254;11.454;2023-05-17T14:34:23;4.38;;;3.42;;
32812;SDS011;19162;48.254;11.454;2023-05-17T14:37:23;4.77;;;3.37;;
32812;SDS011;19162;48.254;11.454;2023-05-17T14:40:23;3.58;;;2.90;;
32812;SDS011;19162;48.254;11.454;2023-05-17T14:43:24;4.17;;;3.77;;
32812;SDS011;19162;48.254;11.454;2023-05-17T14:46:24;4.45;;;3.35;;
32812;SDS011;19162;48.254;11.454;2023-05-17T14:49:24;5.27;;;3.50;;
32812;SDS011;19162;48.254;11.454;2023-05-17T14:52:24;5.03;;;3.17;;
32812;SDS011;19162;48.254;11.454;2023-05-17T14:55:25;4.87;;;3.93;;
32812;SDS011;19162;48.254;11.454;2023-05-17T14:58:26;5.05;;;3.20;;
32812;SDS011;19162;48.254;11.454;2023-05-17T15:01:26;5.90;;;3.63;;
32812;SDS011;19162;48.254;11.454;2023-05-17T15:04:26;4.75;;;3.22;;
32812;SDS011;19162;48.254;11.454;2023-05-17T15:07:27;5.85;;;3.60;;
32812;SDS011;19162;48.254;11.454;2023-05-17T15:10:27;3.63;;;2.83;;
32812;SDS011;19162;48.254;11.454;2023-05-17T15:13:28;4.43;;;3.20;;
32812;SDS011;19162;48.254;11.454;2023-05-17T15:16:29;3.30;;;2.70;;
32812;SDS011;19162;48.254;11.454;2023-05-17T15:19:29;4.82;;;3.20;;
32812;SDS011;19162;48.254;11.454;2023-05-17T15:22:30;5.30;;;3.20;;
32812;SDS011;19162;48.254;11.454;2023-05-17T15:25:30;5.63;;;3.93;;
32812;SDS011;19162;48.254;11.454;2023-05-17T15:28:31;3.83;;;3.53;;
32812;SDS011;19162;48.254;11.454;2023-05-17T15:31:31;10.93;;;3.58;;
32812;SDS011;19162;48.254;11.454;2023-05-17T15:34:31;6.55;;;4.53;;
32812;SDS011;19162;48.254;11.454;2023-05-17T15:37:31;4.13;;;3.72;;
32812;SDS011;19162;48.254;11.454;2023-05-17T15:40:32;4.05;;;3.38;;
32812;SDS011;19162;48.254;11.454;2023-05-17T15:43:33;5.80;;;3.78;;
32812;SDS011;19162;48.254;11.454;2023-05-17T15:46:33;5.05;;;3.92;;
32812;SDS011;19162;48.254;11.454;2023-05-17T15:49:34;5.67;;;4.70;;
32812;SDS011;19162;48.254;11.454;2023-05-17T15:52:34;5.80;;;4.88;;
32812;SDS011;19162;48.254;11.454;2023-05-17T15:55:35;5.07;;;4.53;;
32812;SDS011;19162;48.254;11.454;2023-05-17T15:58:35;8.00;;;4.83;;
32812;SDS011;19162;48.254;11.454;2023-05-17T16:01:35;6.22;;;5.13;;
32812;SDS011;19162;48.254;11.454;2023-05-17T16:04:35;4.80;;;4.30;;
32812;SDS011;19162;48.254;11.454;2023-05-17T16:07:36;6.65;;;4.78;;
32812;SDS011;19162;48.254;11.454;2023-05-17T16:10:36;6.90;;;5.53;;
32812;SDS011;19162;48.254;11.454;2023-05-17T16:13:37;6.45;;;4.53;;
32812;SDS011;19162;48.254;11.454;2023-05-17T16:16:37;7.07;;;5.18;;
32812;SDS011;19162;48.254;11.454;2023-05-17T16:19:37;6.80;;;5.38;;
32812;SDS011;19162;48.254;11.454;2023-05-17T16:22:44;7.22;;;5.28;;
32812;SDS011;19162;48.254;11.454;2023-05-17T16:25:44;8.68;;;5.28;;
32812;SDS011;19162;48.254;11.454;2023-05-17T16:28:45;7.18;;;4.93;;
32812;SDS011;19162;48.254;11.454;2023-05-17T16:31:46;5.30;;;4.50;;
32812;SDS011;19162;48.254;11.454;2023-05-17T16:34:46;6.82;;;4.78;;
32812;SDS011;19162;48.254;11.454;2023-05-17T16:37:47;4.75;;;4.35;;
32812;SDS011;19162;48.254;11.454;2023-05-17T16:40:47;5.22;;;4.30;;
32812;SDS011;19162;48.254;11.454;2023-05-17T16:43:47;5.77;;;4.37;;
32812;SDS011;19162;48.254;11.454;2023-05-17T16:46:47;5.20;;;4.70;;
32812;SDS011;19162;48.254;11.454;2023-05-17T16:49:48;7.57;;;4.43;;
32812;SDS011;19162;48.254;11.454;2023-05-17T16:52:48;5.90;;;4.40;;
32812;SDS011;19162;48.254;11.454;2023-05-17T16:55:48;5.10;;;4.03;;
32812;SDS011;19162;48.254;11.454;2023-05-17T16:58:49;4.50;;;4.10;;
32812;SDS011;19162;48.254;11.454;2023-05-17T17:01:49;5.18;;;4.30;;
32812;SDS011;19162;48.254;11.454;2023-05-17T17:04:50;4.57;;;3.92;;
32812;SDS011;19162;48.254;11.454;2023-05-17T17:07:50;5.67;;;3.90;;
32812;SDS011;19162;48.254;11.454;2023-05-17T17:10:53;6.37;;;4.37;;
32812;SDS011;19162;48.254;11.454;2023-05-17T17:13:53;5.70;;;4.57;;
32812;SDS011;19162;48.254;11.454;2023-05-17T17:16:54;6.43;;;4.05;;
32812;SDS011;19162;48.254;11.454;2023-05-17T17:19:54;7.30;;;3.63;;
32812;SDS011;19162;48.254;11.454;2023-05-17T17:22:55;5.93;;;3.67;;
32812;SDS011;19162;48.254;11.454;2023-05-17T17:25:55;5.07;;;3.90;;
32812;SDS011;19162;48.254;11.454;2023-05-17T17:28:55;5.70;;;4.00;;
32812;SDS011;19162;48.254;11.454;2023-05-17T17:31:57;7.13;;;3.72;;
32812;SDS011;19162;48.254;11.454;2023-05-17T17:34:58;3.70;;;3.07;;
32812;SDS011;19162;48.254;11.454;2023-05-17T17:37:58;7.15;;;3.92;;
32812;SDS011;19162;48.254;11.454;2023-05-17T17:40:58;8.37;;;3.50;;
32812;SDS011;19162;48.254;11.454;2023-05-17T17:43:58;4.47;;;3.50;;
32812;SDS011;19162;48.254;11.454;2023-05-17T17:46:58;4.55;;;3.42;;
32812;SDS011;19162;48.254;11.454;2023-05-17T17:49:59;4.50;;;3.80;;
32812;SDS011;19162;48.254;11.454;2023-05-17T17:52:59;3.87;;;3.43;;
32812;SDS011;19162;48.254;11.454;2023-05-17T17:56:00;6.22;;;3.40;;
32812;SDS011;19162;48.254;11.454;2023-05-17T17:59:00;5.22;;;3.40;;
32812;SDS011;19162;48.254;11.454;2023-05-17T18:02:00;5.27;;;3.93;;
32812;SDS011;19162;48.254;11.454;2023-05-17T18:05:00;5.70;;;3.20;;
32812;SDS011;19162;48.254;11.454;2023-05-17T18:08:01;6.72;;;3.50;;